Telemetry
Timestamp Node Air Util TX Channel Util Battery Uptime Voltage Current Barometric Pressure Relative Humidity Temperature Gas Resistance
2026-05-05 03:46:46 RX01 0.02% 0.0% 101% 15205 0.0 V
2026-05-05 03:46:46 RX01 0.02% 0.0% 101% 15205 0.0 V
2026-05-05 03:43:57 DJMH 0.32% 0.0% 83% 6268006 4.01 V
2026-05-05 03:43:56 DJMH 0.32% 0.0% 83% 6268006 4.01 V
2026-05-05 03:42:44 7274 0.44% 0.0% 100% 7579469 4.12 V
2026-05-05 03:42:44 7274 0.44% 0.0% 100% 7579469 4.12 V
2026-05-05 03:42:44 7274 0.44% 0.0% 100% 7579469 4.12 V
2026-05-05 03:41:43 LMBt 0.31% 1.9% 0% 793653 3.07 V
2026-05-05 03:41:42 LMBt 0.31% 1.9% 0% 793653 3.07 V
2026-05-05 03:41:40 LMBt 0.31% 1.9% 0% 793653 3.07 V
2026-05-05 03:41:38 LMBt 0.31% 1.9% 0% 793653 3.07 V
2026-05-05 03:41:38 LMBt 0.31% 1.9% 0% 793653 3.07 V
2026-05-05 03:40:22 ah01 1.88% 6.2% 94% 1724440 4.11 V
2026-05-05 03:40:21 ah01 1.88% 6.2% 94% 1724440 4.11 V
2026-05-05 03:40:21 ah01 1.88% 6.2% 94% 1724440 4.11 V
2026-05-05 03:40:20 ah01 1.88% 6.2% 94% 1724440 4.11 V
2026-05-05 03:40:16 ah01 1.88% 6.2% 94% 1724440 4.11 V
2026-05-05 03:40:15 ah01 1.88% 6.2% 94% 1724440 4.11 V
2026-05-05 03:40:15 ah01 1.88% 6.2% 94% 1724440 4.11 V
2026-05-05 03:39:21 SMWS 1.0% 5.5% 42% 579253 3.65 V
2026-05-05 03:39:20 SMWS 1.0% 5.5% 42% 579253 3.65 V
2026-05-05 03:38:58 Wdst 0.96% 10.9% 71% 4163536 3.9 V
2026-05-05 03:38:57 Wdst 0.96% 10.9% 71% 4163536 3.9 V
2026-05-05 03:38:57 Wdst 0.96% 10.9% 71% 4163536 3.9 V
2026-05-05 03:38:22 RF02 1.97% 9.7% 101% 2550781 4.22 V
2026-05-05 03:38:22 RF02 1.97% 9.7% 101% 2550781 4.22 V
2026-05-05 03:38:21 RF02 1.97% 9.7% 101% 2550781 4.22 V
2026-05-05 03:38:07 htec 4.71% 9.2% 101% 10082 4.26 V
2026-05-05 03:38:07 htec 4.71% 9.2% 101% 10082 4.26 V
2026-05-05 03:36:24 IIXF 852.1 hPa 40.44% 21.92°C 217.4 Ohm
2026-05-05 03:36:24 IIXF 852.1 hPa 40.44% 21.92°C 217.4 Ohm
2026-05-05 03:36:11 RF06 0.83% 9.8% 101% 62828 -0.0 V
2026-05-05 03:36:11 RF06 0.83% 9.8% 101% 62828 -0.0 V
2026-05-05 03:36:11 RF06 0.83% 9.8% 101% 62828 -0.0 V
2026-05-05 03:36:03 RF06 0.83% 9.8% 101% 62828 -0.0 V
2026-05-05 03:36:01 RF06 0.83% 9.8% 101% 62828 -0.0 V
2026-05-05 03:36:01 RF06 0.83% 9.8% 101% 62828 -0.0 V
2026-05-05 03:36:01 RF06 0.83% 9.8% 101% 62828 -0.0 V
2026-05-05 03:35:59 IIXF 0.58% 0.0% 101% 61627 4.28 V
2026-05-05 03:35:58 IIXF 0.58% 0.0% 101% 61627 4.28 V
2026-05-05 03:34:47 MJTH 2.08% 5.4% 79% 1585275 3.98 V
2026-05-05 03:34:45 MJTH 2.08% 5.4% 79% 1585275 3.98 V
2026-05-05 03:34:44 MJTH 2.08% 5.4% 79% 1585275 3.98 V
2026-05-05 03:34:44 MJTH 2.08% 5.4% 79% 1585275 3.98 V
2026-05-05 03:34:42 MJTH 2.08% 5.4% 79% 1585275 3.98 V
2026-05-05 03:34:41 MJTH 2.08% 5.4% 79% 1585275 3.98 V
2026-05-05 03:34:41 MJTH 2.08% 5.4% 79% 1585275 3.98 V
2026-05-05 03:32:13 DOS 1.9% 8.6% 99% 63186 4.19 V
2026-05-05 03:32:13 DOS 1.9% 8.6% 99% 63186 4.19 V
2026-05-05 03:32:13 DOS 1.9% 8.6% 99% 63186 4.19 V
2026-05-05 03:32:03 DOS 1.9% 8.6% 99% 63186 4.19 V
2026-05-05 03:32:01 DOS 1.9% 8.6% 99% 63186 4.19 V
2026-05-05 03:32:00 DOS 1.9% 8.6% 99% 63186 4.19 V
2026-05-05 03:32:00 DOS 1.9% 8.6% 99% 63186 4.19 V
2026-05-05 03:31:47 MELK 0.23% 0.0% 95% 4117150 4.13 V
2026-05-05 03:31:47 MELK 0.23% 0.0% 95% 4117150 4.13 V
2026-05-05 03:31:46 MELK 0.23% 0.0% 95% 4117150 4.13 V
2026-05-05 03:31:46 MELK 0.23% 0.0% 95% 4117150 4.13 V
2026-05-05 03:31:46 MELK 0.23% 0.0% 95% 4117150 4.13 V
2026-05-05 03:31:16 Gert 2.13% 9.7% 94% 127994 4.12 V
2026-05-05 03:31:15 Gert 2.13% 9.7% 94% 127994 4.12 V
2026-05-05 03:31:15 Gert 2.13% 9.7% 94% 127994 4.12 V
2026-05-05 03:30:37 LRX1 1.69% 7.5% 10% 155313 3.3 V
2026-05-05 03:30:29 LRX1 1.69% 7.5% 10% 155313 3.3 V
2026-05-05 03:30:26 LRX1 1.69% 7.5% 10% 155313 3.3 V
2026-05-05 03:30:26 LRX1 1.69% 7.5% 10% 155313 3.3 V
2026-05-05 03:30:26 LRX1 1.69% 7.5% 10% 155313 3.3 V
2026-05-05 03:30:18 2369 0.8% 6.2% 3% 63791 3.18 V
2026-05-05 03:30:17 2369 0.8% 6.2% 3% 63791 3.18 V
2026-05-05 03:30:17 2369 0.8% 6.2% 3% 63791 3.18 V
2026-05-05 03:30:13 2369 0.8% 6.2% 3% 63791 3.18 V
2026-05-05 03:30:12 2369 0.8% 6.2% 3% 63791 3.18 V
2026-05-05 03:30:12 2369 0.8% 6.2% 3% 63791 3.18 V
2026-05-05 03:29:10 1ae9 22.23°C
2026-05-05 03:29:10 1ae9 22.23°C
2026-05-05 03:28:45 LMGB 0.08% 0.0% 101% 67437 -0.0 V
2026-05-05 03:28:44 LMGB 0.08% 0.0% 101% 67437 -0.0 V
2026-05-05 03:24:54 HAM1 3.22% 26.3% 95% 43266 4.13 V
2026-05-05 03:24:49 HAM1 3.22% 26.3% 95% 43266 4.13 V
2026-05-05 03:24:47 HAM1 3.22% 26.3% 95% 43266 4.13 V
2026-05-05 03:24:46 HAM1 3.22% 26.3% 95% 43266 4.13 V
2026-05-05 03:24:44 HAM1 3.22% 26.3% 95% 43266 4.13 V
2026-05-05 03:24:44 HAM1 3.22% 26.3% 95% 43266 4.13 V
2026-05-05 03:24:44 HAM1 3.22% 26.3% 95% 43266 4.13 V
2026-05-05 03:24:32 JR70 0.17% 3.2% 89% 5945777 4.05 V
2026-05-05 03:24:32 JR70 0.17% 3.2% 89% 5945777 4.05 V
2026-05-05 03:24:04 Wdst 1.04% 7.4% 72% 4162635 3.91 V
2026-05-05 03:24:04 Wdst 1.04% 7.4% 72% 4162635 3.91 V
2026-05-05 03:24:04 Wdst 1.04% 7.4% 72% 4162635 3.91 V
2026-05-05 03:23:32 ah03
2026-05-05 03:23:31 ah03
2026-05-05 03:23:31 ah03
2026-05-05 03:23:29 ah03
2026-05-05 03:23:28 ah03
2026-05-05 03:23:27 ah03
2026-05-05 03:23:27 ah03
2026-05-05 03:22:29 LMBr 2.41% 7.0% 91% 3645143 4.08 V
2026-05-05 03:22:24 LMBr 2.41% 7.0% 91% 3645143 4.08 V
2026-05-05 03:22:24 LMBr 2.41% 7.0% 91% 3645143 4.08 V
2026-05-05 03:22:24 LMBr 2.41% 7.0% 91% 3645143 4.08 V
2026-05-05 03:22:23 LMBr 2.41% 7.0% 91% 3645143 4.08 V
2026-05-05 03:22:23 LMBr 2.41% 7.0% 91% 3645143 4.08 V
2026-05-05 03:22:22 LMBr 2.41% 7.0% 91% 3645143 4.08 V
2026-05-05 03:21:45 BB04 2.06% 3.9% 101% 118274 -0.0 V
2026-05-05 03:21:45 BB04 2.06% 3.9% 101% 118274 -0.0 V
2026-05-05 03:21:42 BB04 2.06% 3.9% 101% 118274 -0.0 V
2026-05-05 03:21:42 BB04 2.06% 3.9% 101% 118274 -0.0 V
2026-05-05 03:21:42 BB04 2.06% 3.9% 101% 118274 -0.0 V
2026-05-05 03:20:18 PMT2 23.17°C
2026-05-05 03:20:16 PMT2 23.17°C
2026-05-05 03:20:16 PMT2 23.17°C
2026-05-05 03:20:16 PMT2 23.17°C
2026-05-05 03:20:14 PMT2 23.17°C
2026-05-05 03:20:13 PMT2 23.17°C
2026-05-05 03:20:12 PMT2 23.17°C
2026-05-05 03:19:20 HAM2 2.26% 3.0% 92% 982994 4.09 V
2026-05-05 03:19:18 HAM2 2.26% 3.0% 92% 982994 4.09 V
2026-05-05 03:19:18 HAM2 2.26% 3.0% 92% 982994 4.09 V
2026-05-05 03:19:16 HAM2 2.26% 3.0% 92% 982994 4.09 V
2026-05-05 03:19:16 HAM2 2.26% 3.0% 92% 982994 4.09 V
2026-05-05 03:19:14 HAM2 2.26% 3.0% 92% 982994 4.09 V
2026-05-05 03:19:14 HAM2 2.26% 3.0% 92% 982994 4.09 V
2026-05-05 03:19:14 HAM2 2.26% 3.0% 92% 982994 4.09 V
2026-05-05 03:18:24 IIXF 852.61 hPa 40.62% 22.06°C 209.95 Ohm
2026-05-05 03:18:24 IIXF 852.61 hPa 40.62% 22.06°C 209.95 Ohm
2026-05-05 03:17:59 IIXF 0.6% 0.0% 101% 60547 4.28 V
2026-05-05 03:17:58 IIXF 0.6% 0.0% 101% 60547 4.28 V
2026-05-05 03:16:31 4ca4 0.39% 1.0% 92% 929677 4.08 V
2026-05-05 03:14:55 PTRH 0.16% 0.0% 54% 741213 3.75 V
2026-05-05 03:14:55 PTRH 0.16% 0.0% 54% 741213 3.75 V
2026-05-05 03:14:21 PcL1 0.11% 0.0% 101% 19515 4.25 V
2026-05-05 03:14:20 PcL1 0.11% 0.0% 101% 19515 4.25 V
2026-05-05 03:12:44 PMT2 2.03% 0.9% 101% 2663955 4.2 V
2026-05-05 03:12:44 PMT2 2.03% 0.9% 101% 2663955 4.2 V
2026-05-05 03:12:43 PMT2 2.03% 0.9% 101% 2663955 4.2 V
2026-05-05 03:12:41 PMT2 2.03% 0.9% 101% 2663955 4.2 V
2026-05-05 03:12:41 PMT2 2.03% 0.9% 101% 2663955 4.2 V
2026-05-05 03:10:45 RX01 0.04% 0.0% 101% 13044 0.0 V
2026-05-05 03:10:45 RX01 0.04% 0.0% 101% 13044 0.0 V
2026-05-05 03:09:22 RLSC 994.92 hPa 78.64% 10.37°C
2026-05-05 03:09:22 RLSC 994.92 hPa 78.64% 10.37°C
2026-05-05 03:09:04 Wdst 1.04% 7.2% 72% 4161735 3.91 V
2026-05-05 03:09:04 Wdst 1.04% 7.2% 72% 4161735 3.91 V
2026-05-05 03:09:04 Wdst 1.04% 7.2% 72% 4161735 3.91 V
2026-05-05 03:06:44 7274 0.45% 0.0% 100% 7577309 4.12 V
2026-05-05 03:06:44 7274 0.45% 0.0% 100% 7577309 4.12 V
2026-05-05 03:06:44 7274 0.45% 0.0% 100% 7577309 4.12 V
2026-05-05 03:03:01 SMWS 0.93% 0.0% 42% 577054 3.65 V
2026-05-05 03:02:58 SMWS 0.93% 0.0% 42% 577054 3.65 V
2026-05-05 03:02:58 SMWS 0.93% 0.0% 42% 577054 3.65 V
2026-05-05 03:01:44 MELK 0.08% 0.0% 95% 4115350 4.13 V
2026-05-05 03:01:44 MELK 0.08% 0.0% 95% 4115350 4.13 V
2026-05-05 03:01:44 MELK 0.08% 0.0% 95% 4115350 4.13 V
2026-05-05 03:01:13 ah01 1.62% 3.9% 94% 1722097 4.11 V
2026-05-05 03:01:13 ah01 1.62% 3.9% 94% 1722097 4.11 V
2026-05-05 03:01:12 ah01 1.62% 3.9% 94% 1722097 4.11 V
2026-05-05 03:00:43 LRX1 1005.43 hPa 71.51% 17.14°C
2026-05-05 03:00:42 LRX1 1005.43 hPa 71.51% 17.14°C
2026-05-05 03:00:39 LRX1 1005.43 hPa 71.51% 17.14°C
2026-05-05 03:00:39 LRX1 1005.43 hPa 71.51% 17.14°C
2026-05-05 03:00:39 LRX1 1005.43 hPa 71.51% 17.14°C
2026-05-05 03:00:39 LRX1 1005.43 hPa 71.51% 17.14°C
2026-05-05 03:00:31 LRX1 1.69% 8.7% 12% 153513 3.33 V
2026-05-05 03:00:31 LRX1 1.69% 8.7% 12% 153513 3.33 V
2026-05-05 03:00:26 LRX1 1.69% 8.7% 12% 153513 3.33 V
2026-05-05 03:00:25 LRX1 1.69% 8.7% 12% 153513 3.33 V
2026-05-05 03:00:24 LRX1 1.69% 8.7% 12% 153513 3.33 V
2026-05-05 03:00:24 IIXF 852.89 hPa 44.61% 22.21°C 189.16 Ohm
2026-05-05 03:00:24 IIXF 852.89 hPa 44.61% 22.21°C 189.16 Ohm
2026-05-05 03:00:23 LRX1 1.69% 8.7% 12% 153513 3.33 V
2026-05-05 03:00:21 e536 0.65% 0.0% 96% 47353182 4.14 V
2026-05-05 02:59:59 IIXF 0.6% 0.0% 101% 59467 4.28 V
2026-05-05 02:59:58 IIXF 0.6% 0.0% 101% 59467 4.28 V
2026-05-05 02:59:52 HT77 870.51 hPa 48.71% 18.66°C
2026-05-05 02:59:51 HT77 870.51 hPa 48.71% 18.66°C
2026-05-05 02:59:50 MJTH 1.96% 3.5% 77% 1583174 3.97 V
2026-05-05 02:59:50 MJTH 1.96% 3.5% 77% 1583174 3.97 V
2026-05-05 02:59:43 MJTH 1.96% 3.5% 77% 1583174 3.97 V
2026-05-05 02:59:41 MJTH 1.96% 3.5% 77% 1583174 3.97 V
2026-05-05 02:59:40 MJTH 1.96% 3.5% 77% 1583174 3.97 V
2026-05-05 02:57:54 ah02 68.67% 16.91°C
2026-05-05 02:57:42 ah02 68.67% 16.91°C
2026-05-05 02:57:42 ah02 68.67% 16.91°C
2026-05-05 02:57:34 ah02 68.67% 16.91°C
2026-05-05 02:57:33 ah02 68.67% 16.91°C
2026-05-05 02:57:32 ah02 68.67% 16.91°C
2026-05-05 02:57:32 ah02 68.67% 16.91°C
2026-05-05 02:57:10 ah02 0.04% 12.4% 64% 60 3.84 V
2026-05-05 02:57:10 ah02 0.04% 12.4% 64% 60 3.84 V
2026-05-05 02:57:06 ah02 0.04% 12.4% 64% 60 3.84 V
2026-05-05 02:57:06 ah02 0.04% 12.4% 64% 60 3.84 V
2026-05-05 02:57:05 ah02 0.04% 12.4% 64% 60 3.84 V
2026-05-05 02:57:05 ah02 0.04% 12.4% 64% 60 3.84 V
2026-05-05 02:56:44 HT77 0.29% 3.2% 101% 756093 4.28 V
2026-05-05 02:56:44 HT77 0.29% 3.2% 101% 756093 4.28 V
2026-05-05 02:54:00 Wdst 1.15% 13.5% 72% 4160835 3.92 V
2026-05-05 02:54:00 Wdst 1.15% 13.5% 72% 4160835 3.92 V
2026-05-05 02:54:00 Wdst 1.15% 13.5% 72% 4160835 3.92 V
2026-05-05 02:52:58 LUK3 1.22% 1.0% 93% 14872210 4.1 V
2026-05-05 02:52:57 LUK3 1.22% 1.0% 93% 14872210 4.1 V
2026-05-05 02:52:21 RF02 1.44% 9.4% 101% 2548021 4.21 V
2026-05-05 02:52:20 RF02 1.44% 9.4% 101% 2548021 4.21 V
2026-05-05 02:52:20 RF02 1.44% 9.4% 101% 2548021 4.21 V
2026-05-05 02:52:03 LMGB 0.08% 0.0% 101% 65235 -0.0 V
2026-05-05 02:52:03 LMGB 0.08% 0.0% 101% 65235 -0.0 V
2026-05-05 02:50:12 PMT2 23.37°C
2026-05-05 02:50:12 PMT2 23.37°C
2026-05-05 02:50:12 PMT2 23.37°C
2026-05-05 02:50:11 PMT2 23.37°C
2026-05-05 02:50:09 PMT2 23.37°C
2026-05-05 02:50:09 PMT2 23.37°C
2026-05-05 02:49:48 976c 0.76% 1.9% 101% 4462082 4.22 V
2026-05-05 02:49:47 976c 0.76% 1.9% 101% 4462082 4.22 V
2026-05-05 02:49:18 HAM2 2.17% 4.1% 92% 981194 4.09 V
2026-05-05 02:49:18 HAM2 2.17% 4.1% 92% 981194 4.09 V
2026-05-05 02:49:16 HAM2 2.17% 4.1% 92% 981194 4.09 V
2026-05-05 02:49:16 HAM2 2.17% 4.1% 92% 981194 4.09 V
2026-05-05 02:49:14 HAM2 2.17% 4.1% 92% 981194 4.09 V
2026-05-05 02:49:14 HAM2 2.17% 4.1% 92% 981194 4.09 V
2026-05-05 02:49:14 HAM2 2.17% 4.1% 92% 981194 4.09 V
2026-05-05 02:46:23 CLA1 2.71% 8.7% 101% 571405 4.15 V
2026-05-05 02:46:23 CLA1 2.71% 8.7% 101% 571405 4.15 V
2026-05-05 02:46:23 CLA1 2.71% 8.7% 101% 571405 4.15 V
2026-05-05 02:45:17 RF06 0.53% 13.7% 101% 59768 -0.0 V
2026-05-05 02:45:16 RF06 0.53% 13.7% 101% 59768 -0.0 V
2026-05-05 02:45:14 RF06 0.53% 13.7% 101% 59768 -0.0 V
2026-05-05 02:45:13 RF06 0.53% 13.7% 101% 59768 -0.0 V
2026-05-05 02:45:12 RF06 0.53% 13.7% 101% 59768 -0.0 V
2026-05-05 02:45:06 ah03 1009.92 hPa 79.07% 15.83°C
2026-05-05 02:45:01 RF06 0.53% 13.7% 101% 59768 -0.0 V
2026-05-05 02:45:01 RF06 0.53% 13.7% 101% 59768 -0.0 V
2026-05-05 02:45:01 RF06 0.53% 13.7% 101% 59768 -0.0 V
2026-05-05 02:45:00 ah03 1009.92 hPa 79.07% 15.83°C
2026-05-05 02:44:59 ah03 1009.92 hPa 79.07% 15.83°C
2026-05-05 02:44:59 ah03 1009.92 hPa 79.07% 15.83°C
2026-05-05 02:44:37 SMWS 0.9% 1.0% 43% 575956 3.66 V
2026-05-05 02:44:37 SMWS 0.9% 1.0% 43% 575956 3.66 V
2026-05-05 02:44:20 2369 0.77% 6.4% 4% 61031 3.18 V
2026-05-05 02:44:20 2369 0.77% 6.4% 4% 61031 3.18 V
2026-05-05 02:44:17 2369 0.77% 6.4% 4% 61031 3.18 V
2026-05-05 02:44:17 2369 0.77% 6.4% 4% 61031 3.18 V
2026-05-05 02:44:17 2369 0.77% 6.4% 4% 61031 3.18 V
2026-05-05 02:44:13 2369 0.77% 6.4% 4% 61031 3.18 V
2026-05-05 02:44:12 2369 0.77% 6.4% 4% 61031 3.18 V
2026-05-05 02:44:12 2369 0.77% 6.4% 4% 61031 3.18 V
2026-05-05 02:43:55 DJMH 0.37% 0.0% 84% 6264406 4.02 V
2026-05-05 02:43:55 DJMH 0.37% 0.0% 84% 6264406 4.02 V
2026-05-05 02:42:45 MRB1 1.92% 6.7% 101% 78286 4.28 V
2026-05-05 02:42:44 MRB1 1.92% 6.7% 101% 78286 4.28 V
2026-05-05 02:42:44 MRB1 1.92% 6.7% 101% 78286 4.28 V
2026-05-05 02:42:41 ah03 0.61% 14.1% 65% 1307248 3.85 V
2026-05-05 02:42:40 ah03 0.61% 14.1% 65% 1307248 3.85 V
2026-05-05 02:42:37 ah03 0.61% 14.1% 65% 1307248 3.85 V
2026-05-05 02:42:31 ah03 0.61% 14.1% 65% 1307248 3.85 V
2026-05-05 02:42:30 ah03 0.61% 14.1% 65% 1307248 3.85 V
2026-05-05 02:42:29 MRB1 1.92% 6.7% 101% 78286 4.28 V
2026-05-05 02:42:28 ah03 0.61% 14.1% 65% 1307248 3.85 V
2026-05-05 02:42:28 MRB1 1.92% 6.7% 101% 78286 4.28 V
2026-05-05 02:42:28 MRB1 1.92% 6.7% 101% 78286 4.28 V
2026-05-05 02:42:27 ah03 0.61% 14.1% 65% 1307248 3.85 V
2026-05-05 02:42:24 IIXF 852.77 hPa 39.73% 22.08°C 214.44 Ohm
2026-05-05 02:42:24 IIXF 852.77 hPa 39.73% 22.08°C 214.44 Ohm
2026-05-05 02:41:58 IIXF 0.6% 0.0% 101% 58387 4.28 V
2026-05-05 02:41:58 IIXF 0.6% 0.0% 101% 58387 4.28 V
2026-05-05 02:41:14 1ae9 22.14°C
2026-05-05 02:41:14 1ae9 22.14°C
2026-05-05 02:41:12 1ae9 22.14°C
2026-05-05 02:41:12 1ae9 22.14°C
2026-05-05 02:41:12 1ae9 22.14°C
2026-05-05 02:41:10 1ae9 22.14°C
2026-05-05 02:41:10 1ae9 22.14°C
2026-05-05 02:40:12 4ca4 0.4% 5.1% 92% 927487 4.08 V
2026-05-05 02:39:00 PTRH 0.19% 0.9% 58% 739053 3.78 V
2026-05-05 02:39:00 PTRH 0.19% 0.9% 58% 739053 3.78 V
2026-05-05 02:38:57 Wdst 1.03% 73% 4159935 3.92 V
2026-05-05 02:38:57 Wdst 1.03% 73% 4159935 3.92 V
2026-05-05 02:38:57 Wdst 1.03% 73% 4159935 3.92 V
2026-05-05 02:38:55 PTRH 0.19% 0.9% 58% 739053 3.78 V
2026-05-05 02:38:55 PTRH 0.19% 0.9% 58% 739053 3.78 V
2026-05-05 02:38:44 HT77 0.29% 0.0% 101% 755013 4.28 V
2026-05-05 02:38:44 HT77 0.29% 0.0% 101% 755013 4.28 V
2026-05-05 02:38:13 PcL1 0.11% 0.0% 101% 17347 4.24 V
2026-05-05 02:38:13 PcL1 0.11% 0.0% 101% 17347 4.24 V
2026-05-05 02:34:44 RX01 0.04% 3.2% 101% 10882 0.0 V
2026-05-05 02:34:43 RX01 0.04% 3.2% 101% 10882 0.0 V
2026-05-05 02:34:30 ah03
2026-05-05 02:34:30 ah03
2026-05-05 02:33:41 21a9 1013.92 hPa 50.02% 17.38°C
2026-05-05 02:33:40 21a9 1013.92 hPa 50.02% 17.38°C
2026-05-05 02:33:40 21a9 1013.92 hPa 50.02% 17.38°C
2026-05-05 02:32:38 LMBt 0.26% 1.1% 24% 789512 3.47 V
2026-05-05 02:32:38 LMBt 0.26% 1.1% 24% 789512 3.47 V
2026-05-05 02:31:48 MELK 0.02% 0.0% 95% 4113550 4.13 V
2026-05-05 02:31:46 MELK 0.02% 0.0% 95% 4113550 4.13 V
2026-05-05 02:31:45 MELK 0.02% 0.0% 95% 4113550 4.13 V
2026-05-05 02:31:45 MELK 0.02% 0.0% 95% 4113550 4.13 V
2026-05-05 02:30:44 7274 0.47% 0.0% 100% 7575149 4.12 V
2026-05-05 02:30:43 7274 0.47% 0.0% 100% 7575149 4.12 V
2026-05-05 02:30:43 7274 0.47% 0.0% 100% 7575149 4.12 V
2026-05-05 02:26:27 LRX1 1.57% 9.5% 15% 151472 3.36 V
2026-05-05 02:26:27 LRX1 1.57% 9.5% 15% 151472 3.36 V
2026-05-05 02:26:26 LRX1 1.57% 9.5% 15% 151472 3.36 V
2026-05-05 02:26:26 LRX1 1.57% 9.5% 15% 151472 3.36 V
2026-05-05 02:26:24 LRX1 1.57% 9.5% 15% 151472 3.36 V
2026-05-05 02:26:23 LRX1 1.57% 9.5% 15% 151472 3.36 V
2026-05-05 02:26:21 SMWS 0.87% 0.0% 43% 574858 3.66 V
2026-05-05 02:26:21 SMWS 0.87% 0.0% 43% 574858 3.66 V
2026-05-05 02:25:51 ba8b 0.3% 0.9% 101% 8346880 4.23 V
2026-05-05 02:25:49 ba8b 0.3% 0.9% 101% 8346880 4.23 V
2026-05-05 02:25:48 ba8b 0.3% 0.9% 101% 8346880 4.23 V
2026-05-05 02:25:48 ba8b 0.3% 0.9% 101% 8346880 4.23 V
2026-05-05 02:24:24 IIXF 851.32 hPa 41.61% 22.21°C 200.52 Ohm
2026-05-05 02:24:24 IIXF 851.32 hPa 41.61% 22.21°C 200.52 Ohm
2026-05-05 02:24:20 JR70 0.18% 89% 5942165 4.05 V
2026-05-05 02:24:20 JR70 0.18% 89% 5942165 4.05 V
2026-05-05 02:24:02 Wdst 0.98% 71% 4159035 3.91 V
2026-05-05 02:24:01 Wdst 0.98% 71% 4159035 3.91 V
2026-05-05 02:24:01 Wdst 0.98% 71% 4159035 3.91 V
2026-05-05 02:23:58 IIXF 0.61% 0.0% 101% 57307 4.28 V
2026-05-05 02:23:58 IIXF 0.61% 0.0% 101% 57307 4.28 V
2026-05-05 02:22:31 4e18 0.09% 0.0% 101% 1322255 4.23 V
2026-05-05 02:22:31 4e18 0.09% 0.0% 101% 1322255 4.23 V
2026-05-05 02:22:16 ah01 1.66% 0.0% 94% 1719755 4.11 V
2026-05-05 02:22:15 ah01 1.66% 0.0% 94% 1719755 4.11 V
2026-05-05 02:22:15 ah01 1.66% 0.0% 94% 1719755 4.11 V
2026-05-05 02:22:14 ah01 1.66% 0.0% 94% 1719755 4.11 V
2026-05-05 02:22:12 ah01 1.66% 0.0% 94% 1719755 4.11 V
2026-05-05 02:22:12 ah01 1.66% 0.0% 94% 1719755 4.11 V
2026-05-05 02:20:45 HT77 0.29% 0.0% 101% 753933 4.28 V
2026-05-05 02:20:45 HT77 0.29% 0.0% 101% 753933 4.28 V
2026-05-05 02:19:19 HAM2 2.3% 1.9% 92% 979394 4.09 V
2026-05-05 02:19:18 HAM2 2.3% 1.9% 92% 979394 4.09 V
2026-05-05 02:19:16 HAM2 2.3% 1.9% 92% 979394 4.09 V
2026-05-05 02:19:16 HAM2 2.3% 1.9% 92% 979394 4.09 V
2026-05-05 02:19:14 HAM2 2.3% 1.9% 92% 979394 4.09 V
2026-05-05 02:19:14 HAM2 2.3% 1.9% 92% 979394 4.09 V
2026-05-05 02:19:14 HAM2 2.3% 1.9% 92% 979394 4.09 V
2026-05-05 02:17:31 tge0 1.62% 10.9% 2% 13558615 3.14 V
2026-05-05 02:17:31 tge0 1.62% 10.9% 2% 13558615 3.14 V
2026-05-05 02:17:28 tge0 1.62% 10.9% 2% 13558615 3.14 V
2026-05-05 02:17:27 tge0 1.62% 10.9% 2% 13558615 3.14 V
2026-05-05 02:17:27 tge0 1.62% 10.9% 2% 13558615 3.14 V
2026-05-05 02:17:27 tge0 1.62% 10.9% 2% 13558615 3.14 V
2026-05-05 02:17:27 tge0 1.62% 10.9% 2% 13558615 3.14 V
2026-05-05 02:15:47 LMGB 0.07% 0.0% 101% 63059 -0.0 V
2026-05-05 02:15:47 LMGB 0.07% 0.0% 101% 63059 -0.0 V
2026-05-05 02:15:17 PMT2 23.41°C
2026-05-05 02:15:17 PMT2 23.41°C
2026-05-05 02:15:17 PMT2 23.41°C
2026-05-05 02:15:16 PMT2 23.41°C
2026-05-05 02:15:14 PMT2 23.41°C
2026-05-05 02:15:13 PMT2 23.41°C
2026-05-05 02:15:10 DOS 1.67% 4.4% 101% 58566 4.23 V
2026-05-05 02:15:09 DOS 1.67% 4.4% 101% 58566 4.23 V
2026-05-05 02:15:09 DOS 1.67% 4.4% 101% 58566 4.23 V
2026-05-05 02:15:08 DOS 1.67% 4.4% 101% 58566 4.23 V
2026-05-05 02:15:03 DOS 1.67% 4.4% 101% 58566 4.23 V
2026-05-05 02:15:03 DOS 1.67% 4.4% 101% 58566 4.23 V
2026-05-05 02:15:02 DOS 1.67% 4.4% 101% 58566 4.23 V
2026-05-05 02:09:28 RF01 0.34% 11.8% 101% 194399 4.22 V
2026-05-05 02:09:27 RF01 0.34% 11.8% 101% 194399 4.22 V
2026-05-05 02:09:25 RF01 0.34% 11.8% 101% 194399 4.22 V
2026-05-05 02:09:25 RF01 0.34% 11.8% 101% 194399 4.22 V
2026-05-05 02:09:25 RF01 0.34% 11.8% 101% 194399 4.22 V
2026-05-05 02:09:22 RF01 0.34% 11.8% 101% 194399 4.22 V
2026-05-05 02:09:21 RF01 0.34% 11.8% 101% 194399 4.22 V
2026-05-05 02:09:21 RF01 0.34% 11.8% 101% 194399 4.22 V
2026-05-05 02:09:18 JR70 0.2% 91% 5941262 4.07 V
2026-05-05 02:09:17 JR70 0.2% 91% 5941262 4.07 V
2026-05-05 02:08:46 LMBs 23.09°C
2026-05-05 02:08:46 LMBs 23.09°C
2026-05-05 02:08:28 LMBr 2.46% 7.6% 92% 3640703 4.08 V
2026-05-05 02:08:24 LMBr 2.46% 7.6% 92% 3640703 4.08 V
2026-05-05 02:08:24 LMBr 2.46% 7.6% 92% 3640703 4.08 V
2026-05-05 02:08:24 LMBr 2.46% 7.6% 92% 3640703 4.08 V
2026-05-05 02:08:23 LMBr 2.46% 7.6% 92% 3640703 4.08 V
2026-05-05 02:08:23 LMBr 2.46% 7.6% 92% 3640703 4.08 V
2026-05-05 02:08:23 LMBr 2.46% 7.6% 92% 3640703 4.08 V
2026-05-05 02:08:15 b3c2 0.32% 5.0% 97% 26346 4.16 V
2026-05-05 02:08:09 SMWS 0.83% 2.0% 44% 573760 3.67 V
2026-05-05 02:08:08 SMWS 0.83% 2.0% 44% 573760 3.67 V
2026-05-05 02:08:08 SMWS 0.83% 2.0% 44% 573760 3.67 V
2026-05-05 02:06:24 IIXF 851.48 hPa 41.34% 22.06°C 209.15 Ohm
2026-05-05 02:06:24 IIXF 851.48 hPa 41.34% 22.06°C 209.15 Ohm
2026-05-05 02:05:58 IIXF 0.66% 0.0% 101% 56227 4.28 V
2026-05-05 02:05:58 IIXF 0.66% 0.0% 101% 56227 4.28 V
2026-05-05 02:05:24 htec 1.88% 6.3% 101% 4501 4.26 V
2026-05-05 02:05:11 htec 1.88% 6.3% 101% 4501 4.26 V
2026-05-05 02:05:10 htec 1.88% 6.3% 101% 4501 4.26 V
2026-05-05 02:05:09 htec 1.88% 6.3% 101% 4501 4.26 V
2026-05-05 02:05:09 htec 1.88% 6.3% 101% 4501 4.26 V
2026-05-05 02:05:09 htec 1.88% 6.3% 101% 4501 4.26 V
2026-05-05 02:05:07 htec 1.88% 6.3% 101% 4501 4.26 V
2026-05-05 02:05:06 htec 1.88% 6.3% 101% 4501 4.26 V
2026-05-05 02:04:42 ah03
2026-05-05 02:04:41 ah03
2026-05-05 02:04:40 ah03
2026-05-05 02:04:38 ah03
2026-05-05 02:04:37 ah03
2026-05-05 02:04:37 ah03
2026-05-05 02:04:31 4e18 0.1% 0.0% 101% 1321175 4.23 V
2026-05-05 02:04:30 4e18 0.1% 0.0% 101% 1321175 4.23 V
2026-05-05 02:04:19 RF02 1.5% 3.4% 101% 2545141 4.22 V
2026-05-05 02:04:19 RF02 1.5% 3.4% 101% 2545141 4.22 V
2026-05-05 02:04:19 RF02 1.5% 3.4% 101% 2545141 4.22 V
2026-05-05 02:03:11 PTRH 0.15% 1.9% 59% 736893 3.79 V
2026-05-05 02:03:10 PTRH 0.15% 1.9% 59% 736893 3.79 V
2026-05-05 02:02:55 PTRH 0.15% 1.9% 59% 736893 3.79 V
2026-05-05 02:02:54 PTRH 0.15% 1.9% 59% 736893 3.79 V
2026-05-05 02:02:44 HT77 0.29% 0.0% 101% 752853 4.28 V
2026-05-05 02:02:44 HT77 0.29% 0.0% 101% 752853 4.28 V
2026-05-05 02:02:09 PcL1 0.11% 0.0% 101% 15183 4.23 V
2026-05-05 02:02:08 PcL1 0.11% 0.0% 101% 15183 4.23 V
2026-05-05 02:02:00 MELK 0.09% 0.0% 95% 4111749 4.13 V
2026-05-05 02:02:00 MELK 0.09% 0.0% 95% 4111749 4.13 V
2026-05-05 02:01:58 PMT2 2.06% 4.4% 101% 2659695 4.2 V
2026-05-05 02:01:58 PMT2 2.06% 4.4% 101% 2659695 4.2 V
2026-05-05 02:01:57 MELK 0.09% 0.0% 95% 4111749 4.13 V
2026-05-05 02:01:55 MELK 0.09% 0.0% 95% 4111749 4.13 V
2026-05-05 02:01:54 MELK 0.09% 0.0% 95% 4111749 4.13 V
2026-05-05 02:01:46 PMT2 2.06% 4.4% 101% 2659695 4.2 V
2026-05-05 02:01:45 PMT2 2.06% 4.4% 101% 2659695 4.2 V
2026-05-05 02:01:45 MELK 0.09% 0.0% 95% 4111749 4.13 V
2026-05-05 02:01:44 MELK 0.09% 0.0% 95% 4111749 4.13 V
2026-05-05 02:01:44 MELK 0.09% 0.0% 95% 4111749 4.13 V
2026-05-05 02:01:44 MELK 0.09% 0.0% 95% 4111749 4.13 V
2026-05-05 02:01:42 PMT2 2.06% 4.4% 101% 2659695 4.2 V
2026-05-05 02:01:42 PMT2 2.06% 4.4% 101% 2659695 4.2 V
2026-05-05 02:01:33 1808 1.7% 10.1% 101% 58313 -0.0 V
2026-05-05 02:01:33 1808 1.7% 10.1% 101% 58313 -0.0 V
2026-05-05 02:00:43 ah03 1009.94 hPa 79.14% 15.78°C
2026-05-05 02:00:42 ah03 1009.94 hPa 79.14% 15.78°C
2026-05-05 02:00:42 ah03 1009.94 hPa 79.14% 15.78°C
2026-05-05 01:58:42 RX01 0.02% 0.0% 101% 8721 0.0 V
2026-05-05 01:58:42 RX01 0.02% 0.0% 101% 8721 0.0 V
2026-05-05 01:58:22 2369 0.95% 10.2% 4% 58271 3.19 V
2026-05-05 01:58:21 2369 0.95% 10.2% 4% 58271 3.19 V
2026-05-05 01:58:18 2369 0.95% 10.2% 4% 58271 3.19 V
2026-05-05 01:58:18 2369 0.95% 10.2% 4% 58271 3.19 V
2026-05-05 01:58:18 2369 0.95% 10.2% 4% 58271 3.19 V
2026-05-05 01:58:12 2369 0.95% 10.2% 4% 58271 3.19 V
2026-05-05 01:58:12 2369 0.95% 10.2% 4% 58271 3.19 V
2026-05-05 01:58:12 2369 0.95% 10.2% 4% 58271 3.19 V
2026-05-05 01:56:26 LRX1 1.65% 5.7% 16% 149671 3.38 V
2026-05-05 01:56:25 LRX1 1.65% 5.7% 16% 149671 3.38 V
2026-05-05 01:56:23 LRX1 1.65% 5.7% 16% 149671 3.38 V
2026-05-05 01:56:22 LRX1 1.65% 5.7% 16% 149671 3.38 V
2026-05-05 01:56:22 LRX1 1.65% 5.7% 16% 149671 3.38 V
2026-05-05 01:56:22 LRX1 1.65% 5.7% 16% 149671 3.38 V
2026-05-05 01:56:04 ba8b 0.31% 1.5% 101% 8345080 4.23 V
2026-05-05 01:56:03 ba8b 0.31% 1.5% 101% 8345080 4.23 V
2026-05-05 01:56:01 ba8b 0.31% 1.5% 101% 8345080 4.23 V
2026-05-05 01:56:00 ba8b 0.31% 1.5% 101% 8345080 4.23 V
2026-05-05 01:56:00 ba8b 0.31% 1.5% 101% 8345080 4.23 V
2026-05-05 01:56:00 ba8b 0.31% 1.5% 101% 8345080 4.23 V
2026-05-05 01:55:02 ah02 67.91% 17.12°C
2026-05-05 01:55:02 ah02 67.91% 17.12°C
2026-05-05 01:55:02 ah02 67.91% 17.12°C
2026-05-05 01:54:59 ah02 67.91% 17.12°C
2026-05-05 01:54:59 ah02 67.91% 17.12°C
2026-05-05 01:54:59 ah02 67.91% 17.12°C
2026-05-05 01:54:59 ah02 67.91% 17.12°C
2026-05-05 01:54:47 RF06 0.58% 9.0% 101% 56708 -0.0 V
2026-05-05 01:54:46 RF06 0.58% 9.0% 101% 56708 -0.0 V
2026-05-05 01:54:43 7274 0.48% 0.0% 100% 7572989 4.12 V
2026-05-05 01:54:43 7274 0.48% 0.0% 100% 7572989 4.12 V
2026-05-05 01:54:42 RF06 0.58% 9.0% 101% 56708 -0.0 V
2026-05-05 01:54:41 RF06 0.58% 9.0% 101% 56708 -0.0 V
2026-05-05 01:54:38 ah02 0.04% 25.2% 66% 61 3.85 V
2026-05-05 01:54:37 ah02 0.04% 25.2% 66% 61 3.85 V
2026-05-05 01:54:37 ah02 0.04% 25.2% 66% 61 3.85 V
2026-05-05 01:54:34 ah02 0.04% 25.2% 66% 61 3.85 V
2026-05-05 01:54:34 ah02 0.04% 25.2% 66% 61 3.85 V
2026-05-05 01:54:34 ah02 0.04% 25.2% 66% 61 3.85 V
2026-05-05 01:54:03 Wdst 1.14% 2.8% 72% 4157234 3.92 V
2026-05-05 01:54:03 Wdst 1.14% 2.8% 72% 4157234 3.92 V
2026-05-05 01:54:03 Wdst 1.14% 2.8% 72% 4157234 3.92 V
2026-05-05 01:54:02 RF06 0.58% 9.0% 101% 56708 -0.0 V
2026-05-05 01:54:01 RF06 0.58% 9.0% 101% 56708 -0.0 V
2026-05-05 01:54:01 RF06 0.58% 9.0% 101% 56708 -0.0 V
2026-05-05 01:54:01 RF06 0.58% 9.0% 101% 56708 -0.0 V
2026-05-05 01:53:51 ah03 0.66% 22.0% 65% 1304296 3.85 V
2026-05-05 01:53:49 ah03 0.66% 22.0% 65% 1304296 3.85 V
2026-05-05 01:53:40 LRX1 1005.59 hPa 71.2% 17.56°C
2026-05-05 01:53:40 LRX1 1005.59 hPa 71.2% 17.56°C
2026-05-05 01:53:39 LRX1 1005.59 hPa 71.2% 17.56°C
2026-05-05 01:53:39 LRX1 1005.59 hPa 71.2% 17.56°C
2026-05-05 01:53:28 ah03 0.66% 22.0% 65% 1304296 3.85 V
2026-05-05 01:53:27 ah03 0.66% 22.0% 65% 1304296 3.85 V
2026-05-05 01:53:27 ah03 0.66% 22.0% 65% 1304296 3.85 V
2026-05-05 01:51:20 e536 0.46% 0.0% 96% 47349042 4.14 V
2026-05-05 01:49:35 976c 0.7% 5.4% 101% 4458470 4.22 V
2026-05-05 01:49:35 976c 0.7% 5.4% 101% 4458470 4.22 V
2026-05-05 01:49:20 HAM2 2.67% 0.0% 92% 977594 4.09 V
2026-05-05 01:49:19 HAM2 2.67% 0.0% 92% 977594 4.09 V
2026-05-05 01:49:19 HAM2 2.67% 0.0% 92% 977594 4.09 V
2026-05-05 01:49:17 1ae9 22.7°C
2026-05-05 01:49:16 HAM2 2.67% 0.0% 92% 977594 4.09 V
2026-05-05 01:49:16 SMWS 0.85% 2.8% 44% 572623 3.67 V
2026-05-05 01:49:16 HAM2 2.67% 0.0% 92% 977594 4.09 V
2026-05-05 01:49:15 HAM2 2.67% 0.0% 92% 977594 4.09 V
2026-05-05 01:49:15 SMWS 0.85% 2.8% 44% 572623 3.67 V
2026-05-05 01:49:15 HAM2 2.67% 0.0% 92% 977594 4.09 V
2026-05-05 01:49:15 HAM2 2.67% 0.0% 92% 977594 4.09 V
2026-05-05 01:49:15 SMWS 0.85% 2.8% 44% 572623 3.67 V
2026-05-05 01:49:14 1ae9 22.7°C
2026-05-05 01:49:14 1ae9 22.7°C
2026-05-05 01:49:14 1ae9 22.7°C
2026-05-05 01:49:10 1ae9 22.7°C
2026-05-05 01:49:10 1ae9 22.7°C
2026-05-05 01:48:24 IIXF 851.43 hPa 39.84% 22.14°C 212.65 Ohm
2026-05-05 01:48:24 IIXF 851.43 hPa 39.84% 22.14°C 212.65 Ohm
2026-05-05 01:47:58 IIXF 0.68% 0.0% 101% 55147 4.29 V
2026-05-05 01:47:58 IIXF 0.68% 0.0% 101% 55147 4.29 V
2026-05-05 01:46:30 4e18 0.1% 0.0% 101% 1320095 4.22 V
2026-05-05 01:46:30 4e18 0.1% 0.0% 101% 1320095 4.22 V
2026-05-05 01:43:54 DJMH 0.27% 0.0% 85% 6260806 4.02 V
2026-05-05 01:43:54 DJMH 0.27% 0.0% 85% 6260806 4.02 V
2026-05-05 01:43:08 L1 0.95% 0.0% 101% 195742 4.24 V
2026-05-05 01:43:07 L1 0.95% 0.0% 101% 195742 4.24 V
2026-05-05 01:43:07 L1 0.95% 0.0% 101% 195742 4.24 V
2026-05-05 01:43:05 L1 0.95% 0.0% 101% 195742 4.24 V
2026-05-05 01:43:04 L1 0.95% 0.0% 101% 195742 4.24 V
2026-05-05 01:43:03 L1 0.95% 0.0% 101% 195742 4.24 V
2026-05-05 01:39:47 LMGB 0.07% 0.0% 101% 60899 -0.0 V
2026-05-05 01:39:47 LMGB 0.07% 0.0% 101% 60899 -0.0 V
2026-05-05 01:39:13 JR70 0.2% 87% 5939456 4.03 V
2026-05-05 01:39:12 JR70 0.2% 87% 5939456 4.03 V
2026-05-05 01:39:05 Wdst 1.31% 12.3% 71% 4156334 3.9 V
2026-05-05 01:39:04 Wdst 1.31% 12.3% 71% 4156334 3.9 V
2026-05-05 01:39:04 Wdst 1.31% 12.3% 71% 4156334 3.9 V
2026-05-05 01:38:14 ah01 2.13% 0.9% 94% 1717113 4.11 V
2026-05-05 01:38:14 ah01 2.13% 0.9% 94% 1717113 4.11 V
2026-05-05 01:38:09 ah01 2.13% 0.9% 94% 1717113 4.11 V
2026-05-05 01:38:08 ah01 2.13% 0.9% 94% 1717113 4.11 V
2026-05-05 01:38:08 ah01 2.13% 0.9% 94% 1717113 4.11 V
2026-05-05 01:37:23 RLSC 995.13 hPa 77.94% 11.43°C
2026-05-05 01:37:23 RLSC 995.13 hPa 77.94% 11.43°C
2026-05-05 01:36:13 PMT2 23.26°C
2026-05-05 01:36:11 PMT2 23.26°C
2026-05-05 01:36:10 PMT2 23.26°C
2026-05-05 01:36:09 PMT2 23.26°C
2026-05-05 01:36:08 PMT2 23.26°C
2026-05-05 01:31:51 MELK 0.14% 0.0% 95% 4109949 4.13 V
2026-05-05 01:31:50 MELK 0.14% 0.0% 95% 4109949 4.13 V
2026-05-05 01:31:47 MELK 0.14% 0.0% 95% 4109949 4.13 V
2026-05-05 01:31:46 MELK 0.14% 0.0% 95% 4109949 4.13 V
2026-05-05 01:31:46 MELK 0.14% 0.0% 95% 4109949 4.13 V
2026-05-05 01:31:45 MELK 0.14% 0.0% 95% 4109949 4.13 V
2026-05-05 01:31:45 MELK 0.14% 0.0% 95% 4109949 4.13 V
2026-05-05 01:30:44 SMWS 0.81% 3.0% 44% 571507 3.67 V
2026-05-05 01:30:44 SMWS 0.81% 3.0% 44% 571507 3.67 V
2026-05-05 01:30:24 IIXF 851.65 hPa 43.32% 22.32°C 194.16 Ohm
2026-05-05 01:30:24 IIXF 851.65 hPa 43.32% 22.32°C 194.16 Ohm
2026-05-05 01:29:58 IIXF 0.71% 0.0% 101% 54067 4.29 V
2026-05-05 01:29:58 IIXF 0.71% 0.0% 101% 54067 4.29 V
2026-05-05 01:29:50 HT77 871.01 hPa 48.86% 18.74°C
2026-05-05 01:29:49 HT77 871.01 hPa 48.86% 18.74°C
2026-05-05 01:28:30 4e18 0.1% 0.0% 101% 1319015 4.23 V
2026-05-05 01:28:30 4e18 0.1% 0.0% 101% 1319015 4.23 V
2026-05-05 01:27:43 LUK5 1.33% 2.0% 101% 132601 4.29 V
2026-05-05 01:27:43 LUK5 1.33% 2.0% 101% 132601 4.29 V
2026-05-05 01:27:06 PTRH 0.13% 0.0% 56% 734733 3.77 V
2026-05-05 01:27:05 PTRH 0.13% 0.0% 56% 734733 3.77 V
2026-05-05 01:26:55 PTRH 0.13% 0.0% 56% 734733 3.77 V
2026-05-05 01:26:54 PTRH 0.13% 0.0% 56% 734733 3.77 V
2026-05-05 01:26:44 HT77 0.28% 0.0% 101% 750693 4.28 V
2026-05-05 01:26:43 HT77 0.28% 0.0% 101% 750693 4.28 V
2026-05-05 01:26:23 LRX1 1.92% 7.1% 18% 147871 3.4 V
2026-05-05 01:26:22 LRX1 1.92% 7.1% 18% 147871 3.4 V
2026-05-05 01:26:22 LRX1 1.92% 7.1% 18% 147871 3.4 V
2026-05-05 01:26:22 LRX1 1.92% 7.1% 18% 147871 3.4 V
2026-05-05 01:26:22 LRX1 1.92% 7.1% 18% 147871 3.4 V
2026-05-05 01:26:08 PcL1 0.14% 0.0% 101% 13022 4.21 V
2026-05-05 01:26:08 PcL1 0.14% 0.0% 101% 13022 4.21 V
2026-05-05 01:24:00 Wdst 1.44% 6.0% 72% 4155434 3.91 V
2026-05-05 01:24:00 Wdst 1.44% 6.0% 72% 4155434 3.91 V
2026-05-05 01:24:00 Wdst 1.44% 6.0% 72% 4155434 3.91 V
2026-05-05 01:23:40 LMBt 0.25% 2.1% 36% 785372 3.6 V
2026-05-05 01:23:38 LMBt 0.25% 2.1% 36% 785372 3.6 V
2026-05-05 01:23:37 LMBt 0.25% 2.1% 36% 785372 3.6 V
2026-05-05 01:23:37 LMBt 0.25% 2.1% 36% 785372 3.6 V
2026-05-05 01:22:41 RX01 0.02% 0.0% 101% 6559 0.0 V
2026-05-05 01:22:40 RX01 0.02% 0.0% 101% 6559 0.0 V
2026-05-05 01:22:37 Gert 2.44% 11.7% 98% 120253 4.17 V
2026-05-05 01:22:25 Gert 2.44% 11.7% 98% 120253 4.17 V
2026-05-05 01:22:25 Gert 2.44% 11.7% 98% 120253 4.17 V
2026-05-05 01:22:20 Gert 2.44% 11.7% 98% 120253 4.17 V
2026-05-05 01:22:15 Gert 2.44% 11.7% 98% 120253 4.17 V
2026-05-05 01:22:13 Gert 2.44% 11.7% 98% 120253 4.17 V
2026-05-05 01:22:13 Gert 2.44% 11.7% 98% 120253 4.17 V
2026-05-05 01:22:13 Gert 2.44% 11.7% 98% 120253 4.17 V
2026-05-05 01:19:16 HAM2 2.88% 10.6% 92% 975794 4.09 V
2026-05-05 01:19:15 HAM2 2.88% 10.6% 92% 975794 4.09 V
2026-05-05 01:19:15 HAM2 2.88% 10.6% 92% 975794 4.09 V
2026-05-05 01:19:14 HAM2 2.88% 10.6% 92% 975794 4.09 V
2026-05-05 01:19:13 HAM2 2.88% 10.6% 92% 975794 4.09 V
2026-05-05 01:19:13 HAM2 2.88% 10.6% 92% 975794 4.09 V
2026-05-05 01:18:43 7274 0.47% 0.0% 100% 7570828 4.12 V
2026-05-05 01:18:43 7274 0.47% 0.0% 100% 7570828 4.12 V
2026-05-05 01:18:43 7274 0.47% 0.0% 100% 7570828 4.12 V
2026-05-05 01:17:48 ah03
2026-05-05 01:17:46 ah03
2026-05-05 01:17:45 ah03
2026-05-05 01:17:45 ah03
2026-05-05 01:17:45 ah03
2026-05-05 01:17:45 ah03
2026-05-05 01:16:14 ah03 1009.76 hPa 79.72% 15.78°C
2026-05-05 01:16:14 ah03 1009.76 hPa 79.72% 15.78°C
2026-05-05 01:16:11 ah03 1009.76 hPa 79.72% 15.78°C
2026-05-05 01:16:10 ah03 1009.76 hPa 79.72% 15.78°C
2026-05-05 01:16:09 ah03 1009.76 hPa 79.72% 15.78°C
2026-05-05 01:16:09 ah03 1009.76 hPa 79.72% 15.78°C
2026-05-05 01:12:24 IIXF 851.68 hPa 38.95% 22.16°C 217.83 Ohm
2026-05-05 01:12:24 IIXF 851.68 hPa 38.95% 22.16°C 217.83 Ohm
2026-05-05 01:11:58 IIXF 0.66% 0.0% 101% 52987 4.28 V
2026-05-05 01:11:58 IIXF 0.66% 0.0% 101% 52987 4.28 V
2026-05-05 01:11:51 HT77 870.84 hPa 48.85% 18.89°C
2026-05-05 01:11:51 HT77 870.84 hPa 48.85% 18.89°C
2026-05-05 01:10:30 4e18 0.1% 0.0% 101% 1317935 4.23 V
2026-05-05 01:10:29 4e18 0.1% 0.0% 101% 1317935 4.23 V
2026-05-05 01:09:19 RF02 1.79% 7.9% 101% 2541840 4.22 V
2026-05-05 01:09:19 RF02 1.79% 7.9% 101% 2541840 4.22 V
2026-05-05 01:09:19 RF02 1.79% 7.9% 101% 2541840 4.22 V
2026-05-05 01:09:04 JR70 0.2% 2.8% 86% 5937650 4.03 V
2026-05-05 01:09:04 JR70 0.2% 2.8% 86% 5937650 4.03 V
2026-05-05 01:08:58 Wdst 1.34% 12.3% 72% 4154533 3.92 V
2026-05-05 01:08:58 Wdst 1.34% 12.3% 72% 4154533 3.92 V
2026-05-05 01:08:58 Wdst 1.34% 12.3% 72% 4154533 3.92 V
2026-05-05 01:08:45 LMBs 23.67°C
2026-05-05 01:08:45 LMBs 23.67°C
2026-05-05 01:08:44 HT77 0.26% 0.0% 101% 749613 4.28 V
2026-05-05 01:08:43 HT77 0.26% 0.0% 101% 749613 4.28 V
2026-05-05 01:07:27 ah03 0.69% 18.5% 66% 1301536 3.85 V
2026-05-05 01:07:27 ah03 0.69% 18.5% 66% 1301536 3.85 V
2026-05-05 01:07:26 ah03 0.69% 18.5% 66% 1301536 3.85 V
2026-05-05 01:07:25 ah03 0.69% 18.5% 66% 1301536 3.85 V
2026-05-05 01:07:24 ah03 0.69% 18.5% 66% 1301536 3.85 V
2026-05-05 01:05:22 2369 0.92% 3.2% 4% 55091 3.2 V
2026-05-05 01:05:22 2369 0.92% 3.2% 4% 55091 3.2 V
2026-05-05 01:05:16 2369 0.92% 3.2% 4% 55091 3.2 V
2026-05-05 01:05:15 2369 0.92% 3.2% 4% 55091 3.2 V
2026-05-05 01:05:12 2369 0.92% 3.2% 4% 55091 3.2 V
2026-05-05 01:05:12 2369 0.92% 3.2% 4% 55091 3.2 V
2026-05-05 01:05:12 2369 0.92% 3.2% 4% 55091 3.2 V
2026-05-05 01:03:47 LMGB 0.07% 0.0% 101% 58739 -0.0 V
2026-05-05 01:03:46 LMGB 0.07% 0.0% 101% 58739 -0.0 V
2026-05-05 01:00:43 BB04 2.53% 5.0% 101% 109814 -0.0 V
2026-05-05 01:00:43 BB04 2.53% 5.0% 101% 109814 -0.0 V
2026-05-05 01:00:42 BB04 2.53% 5.0% 101% 109814 -0.0 V
2026-05-05 01:00:42 BB04 2.53% 5.0% 101% 109814 -0.0 V
2026-05-05 01:00:41 BB04 2.53% 5.0% 101% 109814 -0.0 V
2026-05-05 01:00:40 BB04 2.53% 5.0% 101% 109814 -0.0 V
2026-05-05 00:59:15 RF06 1.34% 7.8% 101% 53408 -0.0 V
2026-05-05 00:59:15 RF06 1.34% 7.8% 101% 53408 -0.0 V
2026-05-05 00:59:12 PMT2 23.58°C
2026-05-05 00:59:10 PMT2 23.58°C
2026-05-05 00:59:10 RF06 1.34% 7.8% 101% 53408 -0.0 V
2026-05-05 00:59:10 PMT2 23.58°C
2026-05-05 00:59:09 RF06 1.34% 7.8% 101% 53408 -0.0 V
2026-05-05 00:59:09 PMT2 23.58°C
2026-05-05 00:59:06 RF06 1.34% 7.8% 101% 53408 -0.0 V
2026-05-05 00:59:06 PMT2 23.58°C
2026-05-05 00:59:06 PMT2 23.58°C
2026-05-05 00:59:05 RF06 1.34% 7.8% 101% 53408 -0.0 V
2026-05-05 00:59:03 RF06 1.34% 7.8% 101% 53408 -0.0 V
2026-05-05 00:59:01 RF06 1.34% 7.8% 101% 53408 -0.0 V
2026-05-05 00:59:01 RF06 1.34% 7.8% 101% 53408 -0.0 V
2026-05-05 00:59:01 RF06 1.34% 7.8% 101% 53408 -0.0 V
2026-05-05 00:57:09 DOS 2.27% 4.5% 101% 53886 4.2 V
2026-05-05 00:57:07 DOS 2.27% 4.5% 101% 53886 4.2 V
2026-05-05 00:57:07 DOS 2.27% 4.5% 101% 53886 4.2 V
2026-05-05 00:57:02 DOS 2.27% 4.5% 101% 53886 4.2 V
2026-05-05 00:57:00 DOS 2.27% 4.5% 101% 53886 4.2 V
2026-05-05 00:57:00 DOS 2.27% 4.5% 101% 53886 4.2 V
2026-05-05 00:56:59 DOS 2.27% 4.5% 101% 53886 4.2 V
2026-05-05 00:56:23 LRX1 1.91% 4.9% 18% 146070 3.41 V
2026-05-05 00:56:22 LRX1 1.91% 4.9% 18% 146070 3.41 V
2026-05-05 00:56:22 LRX1 1.91% 4.9% 18% 146070 3.41 V
2026-05-05 00:56:22 LRX1 1.91% 4.9% 18% 146070 3.41 V
2026-05-05 00:55:57 ba8b 0.47% 0.0% 101% 8341480 4.24 V
2026-05-05 00:55:56 ba8b 0.47% 0.0% 101% 8341480 4.24 V
2026-05-05 00:55:56 ba8b 0.47% 0.0% 101% 8341480 4.24 V
2026-05-05 00:55:56 ba8b 0.47% 0.0% 101% 8341480 4.24 V
2026-05-05 00:54:24 IIXF 851.73 hPa 40.88% 22.29°C 205.77 Ohm
2026-05-05 00:54:23 IIXF 851.73 hPa 40.88% 22.29°C 205.77 Ohm
2026-05-05 00:54:01 JR70 0.22% 3.0% 92% 5936747 4.09 V
2026-05-05 00:54:01 JR70 0.22% 3.0% 92% 5936747 4.09 V
2026-05-05 00:53:58 IIXF 0.64% 0.0% 101% 51907 4.29 V
2026-05-05 00:53:58 IIXF 0.64% 0.0% 101% 51907 4.29 V
2026-05-05 00:53:58 Wdst 1.22% 15.0% 55% 4153633 3.76 V
2026-05-05 00:53:57 Wdst 1.22% 15.0% 55% 4153633 3.76 V
2026-05-05 00:53:57 Wdst 1.22% 15.0% 55% 4153633 3.76 V
2026-05-05 00:53:50 SMWS 0.82% 0.0% 45% 569284 3.68 V
2026-05-05 00:53:49 SMWS 0.82% 0.0% 45% 569284 3.68 V
2026-05-05 00:53:43 LRX1 1005.59 hPa 70.15% 17.9°C
2026-05-05 00:53:42 LRX1 1005.59 hPa 70.15% 17.9°C
2026-05-05 00:53:41 LRX1 1005.59 hPa 70.15% 17.9°C
2026-05-05 00:53:39 LRX1 1005.59 hPa 70.15% 17.9°C
2026-05-05 00:53:39 LRX1 1005.59 hPa 70.15% 17.9°C
2026-05-05 00:53:19 1ae9 23.2°C
2026-05-05 00:53:19 1ae9 23.2°C
2026-05-05 00:53:17 htec 0.16% 7.5% 101% 121 4.22 V
2026-05-05 00:53:05 PMT2 2.52% 12.2% 101% 2655555 4.21 V
2026-05-05 00:53:05 PMT2 2.52% 12.2% 101% 2655555 4.21 V
2026-05-05 00:52:30 4e18 0.09% 0.0% 101% 1316854 4.23 V
2026-05-05 00:52:29 4e18 0.09% 0.0% 101% 1316854 4.23 V
2026-05-05 00:52:29 ah02 69.55% 17.2°C
2026-05-05 00:52:28 ah02 69.55% 17.2°C
2026-05-05 00:52:28 ah02 69.55% 17.2°C
2026-05-05 00:52:28 ah02 69.55% 17.2°C
2026-05-05 00:52:14 1ae9 23.2°C
2026-05-05 00:52:14 1ae9 23.2°C
2026-05-05 00:52:13 1ae9 23.2°C
2026-05-05 00:52:13 1ae9 23.2°C
2026-05-05 00:52:10 1ae9 23.2°C
2026-05-05 00:52:10 1ae9 23.2°C
2026-05-05 00:52:08 htec 0.16% 7.5% 101% 121 4.22 V
2026-05-05 00:52:08 htec 0.16% 7.5% 101% 121 4.22 V
2026-05-05 00:52:07 ah02 0.04% 30.0% 65% 61 3.85 V
2026-05-05 00:52:06 ah02 0.04% 30.0% 65% 61 3.85 V
2026-05-05 00:52:05 ah02 0.04% 30.0% 65% 61 3.85 V
2026-05-05 00:52:05 ah02 0.04% 30.0% 65% 61 3.85 V
2026-05-05 00:51:22 ZS1G 0.04% 22.0% 101% 46 4.29 V
2026-05-05 00:51:21 ZS1G 0.04% 22.0% 101% 46 4.29 V
2026-05-05 00:51:20 ZS1G 0.04% 22.0% 101% 46 4.29 V
2026-05-05 00:51:20 ZS1G 0.04% 22.0% 101% 46 4.29 V
2026-05-05 00:50:54 PTRH 0.16% 1.9% 56% 732572 3.77 V
2026-05-05 00:50:54 PTRH 0.16% 1.9% 56% 732572 3.77 V
2026-05-05 00:50:48 ZS1G 0.04% 22.0% 101% 46 4.29 V
2026-05-05 00:50:47 ZS1G 0.04% 22.0% 101% 46 4.29 V
2026-05-05 00:50:44 HT77 0.32% 0.0% 101% 748533 4.28 V
2026-05-05 00:50:44 HT77 0.32% 0.0% 101% 748533 4.28 V
2026-05-05 00:50:22 MRB1 2.26% 20.3% 101% 71561 4.22 V
2026-05-05 00:50:22 MRB1 2.26% 20.3% 101% 71561 4.22 V
2026-05-05 00:50:08 PcL1 0.14% 3.3% 101% 10862 4.24 V
2026-05-05 00:50:08 PcL1 0.14% 3.3% 101% 10862 4.24 V
2026-05-05 00:49:23 976c 0.6% 1.9% 101% 4454858 4.22 V
2026-05-05 00:49:22 976c 0.6% 1.9% 101% 4454858 4.22 V
2026-05-05 00:49:16 HAM2 2.65% 16.7% 91% 973993 4.07 V
2026-05-05 00:49:16 HAM2 2.65% 16.7% 91% 973993 4.07 V
2026-05-05 00:49:15 HAM2 2.65% 16.7% 91% 973993 4.07 V
2026-05-05 00:49:14 HAM2 2.65% 16.7% 91% 973993 4.07 V
2026-05-05 00:49:14 HAM2 2.65% 16.7% 91% 973993 4.07 V
2026-05-05 00:49:13 HAM2 2.65% 16.7% 91% 973993 4.07 V
2026-05-05 00:46:39 RX01 0.02% 1.1% 101% 4398 0.0 V
2026-05-05 00:46:39 RX01 0.02% 1.1% 101% 4398 0.0 V
2026-05-05 00:46:08 LMBr 2.56% 6.2% 91% 3635723 4.07 V
2026-05-05 00:46:08 LMBr 2.56% 6.2% 91% 3635723 4.07 V
2026-05-05 00:45:26 LMBr 2.56% 6.2% 91% 3635723 4.07 V
2026-05-05 00:45:25 LMBr 2.56% 6.2% 91% 3635723 4.07 V
2026-05-05 00:45:25 LMBr 2.56% 6.2% 91% 3635723 4.07 V
2026-05-05 00:45:24 LMBr 2.56% 6.2% 91% 3635723 4.07 V
2026-05-05 00:45:24 LMBr 2.56% 6.2% 91% 3635723 4.07 V
2026-05-05 00:45:24 LMBr 2.56% 6.2% 91% 3635723 4.07 V
2026-05-05 00:44:02 SZA1 2.78% 6.5% 91% 19036102 4.08 V
2026-05-05 00:44:02 SZA1 2.78% 6.5% 91% 19036102 4.08 V
2026-05-05 00:43:57 DJMH 0.34% 0.0% 86% 6257205 4.03 V
2026-05-05 00:43:56 DJMH 0.34% 0.0% 86% 6257205 4.03 V
2026-05-05 00:42:43 7274 0.45% 0.0% 100% 7568668 4.12 V
2026-05-05 00:42:43 7274 0.45% 0.0% 100% 7568668 4.12 V
2026-05-05 00:42:43 7274 0.45% 0.0% 100% 7568668 4.12 V
2026-05-05 00:39:25 ZS1G 0.06% 19.8% 101% 46 4.22 V
2026-05-05 00:39:24 ZS1G 0.06% 19.8% 101% 46 4.22 V
2026-05-05 00:39:23 ZS1G 0.06% 19.8% 101% 46 4.22 V
2026-05-05 00:38:59 Wdst 1.07% 5.8% 72% 4152733 3.92 V
2026-05-05 00:38:58 Wdst 1.07% 5.8% 72% 4152733 3.92 V
2026-05-05 00:38:58 Wdst 1.07% 5.8% 72% 4152733 3.92 V
2026-05-05 00:38:56 LUK3 1.12% 5.6% 94% 14864170 4.11 V
2026-05-05 00:38:55 LUK3 1.12% 5.6% 94% 14864170 4.11 V
2026-05-05 00:36:25 ah03 1009.85 hPa 80.36% 15.89°C
2026-05-05 00:36:25 ah03 1009.85 hPa 80.36% 15.89°C
2026-05-05 00:36:24 IIXF 851.83 hPa 38.45% 22.18°C 222.68 Ohm
2026-05-05 00:36:23 IIXF 851.83 hPa 38.45% 22.18°C 222.68 Ohm
2026-05-05 00:36:22 ah03 1009.85 hPa 80.36% 15.89°C
2026-05-05 00:36:22 ah03 1009.85 hPa 80.36% 15.89°C
2026-05-05 00:36:17 ah03 1009.85 hPa 80.36% 15.89°C
2026-05-05 00:36:16 ah03 1009.85 hPa 80.36% 15.89°C
2026-05-05 00:36:16 ah03 1009.85 hPa 80.36% 15.89°C
2026-05-05 00:35:58 IIXF 0.62% 0.0% 101% 50827 4.29 V
2026-05-05 00:35:58 IIXF 0.62% 0.0% 101% 50827 4.29 V
2026-05-05 00:35:50 HT77 871.12 hPa 48.93% 19.04°C
2026-05-05 00:35:50 HT77 871.12 hPa 48.93% 19.04°C
2026-05-05 00:35:11 SMWS 0.89% 0.0% 45% 568160 3.68 V
2026-05-05 00:35:10 SMWS 0.89% 0.0% 45% 568160 3.68 V
2026-05-05 00:35:09 SMWS 0.89% 0.0% 45% 568160 3.68 V
2026-05-05 00:34:29 4e18 0.09% 0.0% 101% 1315774 4.23 V
2026-05-05 00:34:29 4e18 0.09% 0.0% 101% 1315774 4.23 V
2026-05-05 00:31:52 MELK 0.08% 0.0% 95% 4106349 4.13 V
2026-05-05 00:31:52 MELK 0.08% 0.0% 95% 4106349 4.13 V
2026-05-05 00:31:49 MELK 0.08% 0.0% 95% 4106349 4.13 V
2026-05-05 00:31:49 MELK 0.08% 0.0% 95% 4106349 4.13 V
2026-05-05 00:31:48 MELK 0.08% 0.0% 95% 4106349 4.13 V
2026-05-05 00:31:45 MELK 0.08% 0.0% 95% 4106349 4.13 V
2026-05-05 00:31:43 MELK 0.08% 0.0% 95% 4106349 4.13 V
2026-05-05 00:31:43 MELK 0.08% 0.0% 95% 4106349 4.13 V
2026-05-05 00:31:43 MELK 0.08% 0.0% 95% 4106349 4.13 V
2026-05-05 00:27:43 LMGB 0.08% 0.0% 101% 56554 -0.0 V
2026-05-05 00:27:43 LMGB 0.08% 0.0% 101% 56554 -0.0 V
2026-05-05 00:27:42 LMGB 0.08% 0.0% 101% 56554 -0.0 V
2026-05-05 00:27:23 e40c 0.23% 0.0% 101% 142633 4.26 V
2026-05-05 00:26:58 LRX1 1.7% 2.1% 19% 144270 3.42 V
2026-05-05 00:26:57 LRX1 1.7% 2.1% 19% 144270 3.42 V
2026-05-05 00:26:26 LRX1 1.7% 2.1% 19% 144270 3.42 V
2026-05-05 00:26:26 LRX1 1.7% 2.1% 19% 144270 3.42 V
2026-05-05 00:26:23 LRX1 1.7% 2.1% 19% 144270 3.42 V
2026-05-05 00:26:22 LRX1 1.7% 2.1% 19% 144270 3.42 V
2026-05-05 00:26:22 LRX1 1.7% 2.1% 19% 144270 3.42 V
2026-05-05 00:24:30 RF01 0.34% 11.8% 101% 188099 4.24 V
2026-05-05 00:24:30 RF01 0.34% 11.8% 101% 188099 4.24 V
2026-05-05 00:24:30 RF01 0.34% 11.8% 101% 188099 4.24 V
2026-05-05 00:24:27 RF01 0.34% 11.8% 101% 188099 4.24 V
2026-05-05 00:24:21 RF01 0.34% 11.8% 101% 188099 4.24 V
2026-05-05 00:24:21 RF01 0.34% 11.8% 101% 188099 4.24 V
2026-05-05 00:24:21 RF01 0.34% 11.8% 101% 188099 4.24 V
2026-05-05 00:23:56 JR70 0.14% 89% 5934940 4.05 V
2026-05-05 00:23:55 JR70 0.14% 89% 5934940 4.05 V
2026-05-05 00:23:37 LMBt 0.25% 2.1% 44% 781772 3.67 V
2026-05-05 00:23:37 LMBt 0.25% 2.1% 44% 781772 3.67 V
2026-05-05 00:22:58 PMT2 2.27% 10.6% 101% 2653754 4.2 V
2026-05-05 00:22:57 PMT2 2.27% 10.6% 101% 2653754 4.2 V
2026-05-05 00:22:57 PMT2 2.27% 10.6% 101% 2653754 4.2 V
2026-05-05 00:22:56 PMT2 2.27% 10.6% 101% 2653754 4.2 V
2026-05-05 00:22:54 PMT2 2.27% 10.6% 101% 2653754 4.2 V
2026-05-05 00:22:53 PMT2 2.27% 10.6% 101% 2653754 4.2 V
2026-05-05 00:20:38 1808 1.66% 11.3% 101% 52253 -0.0 V
2026-05-05 00:20:38 1808 1.66% 11.3% 101% 52253 -0.0 V
2026-05-05 00:19:18 HAM2 2.56% 4.8% 92% 972193 4.09 V
2026-05-05 00:19:17 HAM2 2.56% 4.8% 92% 972193 4.09 V
2026-05-05 00:19:16 HAM2 2.56% 4.8% 92% 972193 4.09 V
2026-05-05 00:19:16 HAM2 2.56% 4.8% 92% 972193 4.09 V
2026-05-05 00:19:15 HAM2 2.56% 4.8% 92% 972193 4.09 V
2026-05-05 00:19:13 HAM2 2.56% 4.8% 92% 972193 4.09 V
2026-05-05 00:19:13 HAM2 2.56% 4.8% 92% 972193 4.09 V
2026-05-05 00:19:13 HAM2 2.56% 4.8% 92% 972193 4.09 V
2026-05-05 00:18:24 IIXF 851.97 hPa 39.67% 22.28°C 213.06 Ohm
2026-05-05 00:18:23 IIXF 851.97 hPa 39.67% 22.28°C 213.06 Ohm
2026-05-05 00:18:19 RF02 1.7% 10.2% 101% 2538780 4.21 V
2026-05-05 00:18:19 RF02 1.7% 10.2% 101% 2538780 4.21 V
2026-05-05 00:18:19 RF02 1.7% 10.2% 101% 2538780 4.21 V
2026-05-05 00:18:00 HT77 871.49 hPa 49.04% 19.1°C
2026-05-05 00:18:00 HT77 871.49 hPa 49.04% 19.1°C
2026-05-05 00:17:58 IIXF 0.6% 0.0% 101% 49747 4.29 V
2026-05-05 00:17:58 IIXF 0.6% 0.0% 101% 49747 4.29 V
2026-05-05 00:17:20 Gert 2.17% 4.9% 86% 116352 4.03 V
2026-05-05 00:17:20 Gert 2.17% 4.9% 86% 116352 4.03 V
2026-05-05 00:17:17 Gert 2.17% 4.9% 86% 116352 4.03 V
2026-05-05 00:17:15 Gert 2.17% 4.9% 86% 116352 4.03 V
2026-05-05 00:17:15 Gert 2.17% 4.9% 86% 116352 4.03 V
2026-05-05 00:17:13 Gert 2.17% 4.9% 86% 116352 4.03 V
2026-05-05 00:17:13 Gert 2.17% 4.9% 86% 116352 4.03 V
2026-05-05 00:17:13 Gert 2.17% 4.9% 86% 116352 4.03 V
2026-05-05 00:17:12 2369 0.55% 9.9% 4% 52211 3.19 V
2026-05-05 00:17:12 2369 0.55% 9.9% 4% 52211 3.19 V
2026-05-05 00:17:12 2369 0.55% 9.9% 4% 52211 3.19 V
2026-05-05 00:16:35 SMWS 0.88% 0.0% 45% 567038 3.68 V
2026-05-05 00:16:35 SMWS 0.88% 0.0% 45% 567038 3.68 V
2026-05-05 00:16:34 SMWS 0.88% 0.0% 45% 567038 3.68 V
2026-05-05 00:14:54 PTRH 0.11% 0.0% 51% 730412 3.73 V
2026-05-05 00:14:54 PTRH 0.11% 0.0% 51% 730412 3.73 V
2026-05-05 00:14:08 PcL1 0.11% 0.0% 101% 8702 4.21 V
2026-05-05 00:14:07 PcL1 0.11% 0.0% 101% 8702 4.21 V
2026-05-05 00:13:08 RF06 1.11% 20.1% 101% 50647 -0.0 V
2026-05-05 00:13:07 RF06 1.11% 20.1% 101% 50647 -0.0 V
2026-05-05 00:13:06 RF06 1.11% 20.1% 101% 50647 -0.0 V
2026-05-05 00:13:06 RF06 1.11% 20.1% 101% 50647 -0.0 V
2026-05-05 00:13:01 RF06 1.11% 20.1% 101% 50647 -0.0 V
2026-05-05 00:13:01 RF06 1.11% 20.1% 101% 50647 -0.0 V
2026-05-05 00:13:01 RF06 1.11% 20.1% 101% 50647 -0.0 V
2026-05-05 00:12:14 ah01 1.84% 5.0% 94% 1711948 4.11 V
2026-05-05 00:12:14 ah01 1.84% 5.0% 94% 1711948 4.11 V
2026-05-05 00:12:12 1ae9 23.09°C
2026-05-05 00:12:11 1ae9 23.09°C
2026-05-05 00:12:10 1ae9 23.09°C
2026-05-05 00:12:10 ah01 1.84% 5.0% 94% 1711948 4.11 V
2026-05-05 00:12:10 ah01 1.84% 5.0% 94% 1711948 4.11 V
2026-05-05 00:12:05 ah01 1.84% 5.0% 94% 1711948 4.11 V
2026-05-05 00:12:05 ah01 1.84% 5.0% 94% 1711948 4.11 V
2026-05-05 00:10:48 LMBs 24.05°C
2026-05-05 00:10:48 LMBs 24.05°C
2026-05-05 00:10:38 RX01 0.04% 0.0% 101% 2236 0.0 V
2026-05-05 00:10:38 RX01 0.04% 0.0% 101% 2236 0.0 V
2026-05-05 00:09:05 Wdst 0.96% 23.3% 72% 4150933 3.91 V
2026-05-05 00:09:05 Wdst 0.96% 23.3% 72% 4150933 3.91 V
2026-05-05 00:09:05 Wdst 0.96% 23.3% 72% 4150933 3.91 V
2026-05-05 00:07:47 ZS1G 0.04% 11.4% 101% 46 4.24 V
2026-05-05 00:07:47 ZS1G 0.04% 11.4% 101% 46 4.24 V
2026-05-05 00:07:46 ZS1G 0.04% 11.4% 101% 46 4.24 V
2026-05-05 00:07:18 2-D 0.47% 2.0% 101% 12701564 4.22 V
2026-05-05 00:07:18 2-D 0.47% 2.0% 101% 12701564 4.22 V
2026-05-05 00:06:43 7274 0.44% 0.0% 100% 7566508 4.12 V
2026-05-05 00:06:42 7274 0.44% 0.0% 100% 7566508 4.12 V
2026-05-05 00:06:42 7274 0.44% 0.0% 100% 7566508 4.12 V
2026-05-05 00:01:52 MELK 0.06% 0.0% 95% 4104549 4.13 V
2026-05-05 00:01:52 MELK 0.06% 0.0% 95% 4104549 4.13 V
2026-05-05 00:01:43 MELK 0.06% 0.0% 95% 4104549 4.13 V
2026-05-05 00:01:43 MELK 0.06% 0.0% 95% 4104549 4.13 V
2026-05-05 00:01:22 RLSC 995.41 hPa 77.59% 12.0°C
2026-05-05 00:01:22 RLSC 995.41 hPa 77.59% 12.0°C
2026-05-05 00:01:03 ah03
2026-05-05 00:01:03 ah03
2026-05-05 00:01:02 ah03
2026-05-05 00:00:59 ah03
2026-05-05 00:00:58 ah03
2026-05-05 00:00:58 ah03
2026-05-05 00:00:24 IIXF 852.35 hPa 40.43% 22.27°C 211.97 Ohm
2026-05-05 00:00:23 IIXF 852.35 hPa 40.43% 22.27°C 211.97 Ohm
2026-05-04 23:59:58 IIXF 0.61% 0.0% 101% 48667 4.29 V
2026-05-04 23:59:58 IIXF 0.61% 0.0% 101% 48667 4.29 V
2026-05-04 23:59:51 HT77 871.6 hPa 49.2% 19.55°C
2026-05-04 23:59:51 HT77 871.6 hPa 49.2% 19.55°C
2026-05-04 23:58:00 SMWS 0.85% 0.0% 46% 565914 3.68 V
2026-05-04 23:57:59 SMWS 0.85% 0.0% 46% 565914 3.68 V
2026-05-04 23:57:28 tge0 1.8% 15.5% 4% 13550214 3.18 V
2026-05-04 23:57:27 tge0 1.8% 15.5% 4% 13550214 3.18 V
2026-05-04 23:57:26 tge0 1.8% 15.5% 4% 13550214 3.18 V
2026-05-04 23:57:26 tge0 1.8% 15.5% 4% 13550214 3.18 V
2026-05-04 23:57:26 tge0 1.8% 15.5% 4% 13550214 3.18 V
2026-05-04 23:57:01 DOS 1.7% 3.9% 99% 50285 4.19 V
2026-05-04 23:56:59 DOS 1.7% 3.9% 99% 50285 4.19 V
2026-05-04 23:56:58 DOS 1.7% 3.9% 99% 50285 4.19 V
2026-05-04 23:56:27 LRX1 1.35% 3.4% 20% 142470 3.43 V
2026-05-04 23:56:27 LRX1 1.35% 3.4% 20% 142470 3.43 V
2026-05-04 23:56:23 LRX1 1.35% 3.4% 20% 142470 3.43 V
2026-05-04 23:56:22 LRX1 1.35% 3.4% 20% 142470 3.43 V
2026-05-04 23:56:22 LRX1 1.35% 3.4% 20% 142470 3.43 V
2026-05-04 23:56:22 LRX1 1.35% 3.4% 20% 142470 3.43 V
2026-05-04 23:56:22 LRX1 1.35% 3.4% 20% 142470 3.43 V
2026-05-04 23:54:55 ah03 1010.26 hPa 82.74% 15.07°C
2026-05-04 23:54:54 ah03 1010.26 hPa 82.74% 15.07°C
2026-05-04 23:54:54 ah03 1010.26 hPa 82.74% 15.07°C
2026-05-04 23:54:54 ah03 1010.26 hPa 82.74% 15.07°C
2026-05-04 23:54:50 ah03 1010.26 hPa 82.74% 15.07°C
2026-05-04 23:54:49 ah03 1010.26 hPa 82.74% 15.07°C
2026-05-04 23:54:49 ah03 1010.26 hPa 82.74% 15.07°C
2026-05-04 23:53:56 Wdst 0.9% 4.5% 68% 4150032 3.87 V
2026-05-04 23:53:56 Wdst 0.9% 4.5% 68% 4150032 3.87 V
2026-05-04 23:53:56 Wdst 0.9% 4.5% 68% 4150032 3.87 V
2026-05-04 23:53:49 JR70 0.13% 86% 5933134 4.03 V
2026-05-04 23:53:49 JR70 0.13% 86% 5933134 4.03 V
2026-05-04 23:53:42 LRX1 1005.92 hPa 68.95% 18.06°C
2026-05-04 23:53:40 LRX1 1005.92 hPa 68.95% 18.06°C
2026-05-04 23:53:40 LRX1 1005.92 hPa 68.95% 18.06°C
2026-05-04 23:53:39 LRX1 1005.92 hPa 68.95% 18.06°C
2026-05-04 23:53:39 LRX1 1005.92 hPa 68.95% 18.06°C
2026-05-04 23:53:30 CHKV 1.73% 7.3% 101% 8864933 4.2 V
2026-05-04 23:52:46 PMT2 1.8% 4.2% 101% 2651954 4.2 V
2026-05-04 23:52:45 PMT2 1.8% 4.2% 101% 2651954 4.2 V
2026-05-04 23:52:44 PMT2 1.8% 4.2% 101% 2651954 4.2 V
2026-05-04 23:52:41 PMT2 1.8% 4.2% 101% 2651954 4.2 V
2026-05-04 23:52:41 PMT2 1.8% 4.2% 101% 2651954 4.2 V
2026-05-04 23:51:05 LMGB 0.08% 0.0% 101% 54377 -0.0 V
2026-05-04 23:51:04 LMGB 0.08% 0.0% 101% 54377 -0.0 V
2026-05-04 23:50:05 ah02 71.16% 16.94°C
2026-05-04 23:50:04 ah02 71.16% 16.94°C
2026-05-04 23:50:04 ah02 71.16% 16.94°C
2026-05-04 23:50:03 ah02 71.16% 16.94°C
2026-05-04 23:50:03 ah02 71.16% 16.94°C
2026-05-04 23:50:03 ah02 71.16% 16.94°C
2026-05-04 23:50:00 ah02 0.04% 18.2% 68% 61 3.88 V
2026-05-04 23:50:00 ah02 0.04% 18.2% 68% 61 3.88 V
2026-05-04 23:49:54 ah02 0.04% 18.2% 68% 61 3.88 V
2026-05-04 23:49:53 ah02 0.04% 18.2% 68% 61 3.88 V
2026-05-04 23:49:52 ah02 0.04% 18.2% 68% 61 3.88 V
2026-05-04 23:49:52 ah02 0.04% 18.2% 68% 61 3.88 V
2026-05-04 23:49:26 HAM2 2.08% 0.0% 93% 970393 4.09 V
2026-05-04 23:49:26 HAM2 2.08% 0.0% 93% 970393 4.09 V
2026-05-04 23:49:18 HAM2 2.08% 0.0% 93% 970393 4.09 V
2026-05-04 23:49:15 HAM2 2.08% 0.0% 93% 970393 4.09 V
2026-05-04 23:49:15 HAM2 2.08% 0.0% 93% 970393 4.09 V
2026-05-04 23:49:10 976c 0.62% 3.1% 101% 4451245 4.22 V
2026-05-04 23:49:10 976c 0.62% 3.1% 101% 4451245 4.22 V
2026-05-04 23:44:24 LMBr 2.25% 7.1% 93% 3632063 4.09 V
2026-05-04 23:44:24 LMBr 2.25% 7.1% 93% 3632063 4.09 V
2026-05-04 23:44:24 LMBr 2.25% 7.1% 93% 3632063 4.09 V
2026-05-04 23:44:23 LMBr 2.25% 7.1% 93% 3632063 4.09 V
2026-05-04 23:44:23 LMBr 2.25% 7.1% 93% 3632063 4.09 V
2026-05-04 23:44:22 LMBr 2.25% 7.1% 93% 3632063 4.09 V
2026-05-04 23:43:57 DJMH 0.37% 0.0% 86% 6253605 4.03 V
2026-05-04 23:43:57 DJMH 0.37% 0.0% 86% 6253605 4.03 V
2026-05-04 23:42:24 IIXF 852.46 hPa 39.2% 22.32°C 215.56 Ohm
2026-05-04 23:42:23 IIXF 852.46 hPa 39.2% 22.32°C 215.56 Ohm
2026-05-04 23:41:58 IIXF 0.57% 0.0% 101% 47587 4.29 V
2026-05-04 23:41:58 IIXF 0.57% 0.0% 101% 47587 4.29 V
2026-05-04 23:40:55 ah03 0.74% 22.0% 67% 1296329 3.86 V
2026-05-04 23:40:55 ah03 0.74% 22.0% 67% 1296329 3.86 V
2026-05-04 23:40:50 ah03 0.74% 22.0% 67% 1296329 3.86 V
2026-05-04 23:40:48 ah03 0.74% 22.0% 67% 1296329 3.86 V
2026-05-04 23:40:48 ah03 0.74% 22.0% 67% 1296329 3.86 V
2026-05-04 23:39:44 SMWS 0.91% 1.9% 46% 564812 3.69 V
2026-05-04 23:39:44 SMWS 0.91% 1.9% 46% 564812 3.69 V
2026-05-04 23:39:22 e536 0.59% 0.0% 96% 47341122 4.15 V
2026-05-04 23:39:14 ah01 1.52% 11.1% 94% 1709965 4.11 V
2026-05-04 23:39:13 ah01 1.52% 11.1% 94% 1709965 4.11 V
2026-05-04 23:39:12 ah01 1.52% 11.1% 94% 1709965 4.11 V
2026-05-04 23:39:12 ah01 1.52% 11.1% 94% 1709965 4.11 V
2026-05-04 23:39:11 1ae9 22.98°C
2026-05-04 23:39:10 1ae9 22.98°C
2026-05-04 23:39:02 CLA1 2.81% 9.8% 101% 560168 4.05 V
2026-05-04 23:39:02 CLA1 2.81% 9.8% 101% 560168 4.05 V
Visit MeshInfo-Lite on Github. Also visit the original MeshInfo by Kevin Elliott.